Saint Louis Park, Minnesota
Current Conditions -  °F | °C
As of 11:02 AM on Sunday 21 Dec 2014 (Local Time) from KMSP Reporting Station
Light Snow Light Snow  
Wind Chill: 27°   Ceiling: 500
Heat Index: 34°   Visibility: 2.5mi
Dew Point: 33°   Wind: 9mph
Humidity: 96%   Direction: 150°SSE
Pressure: 29.85"   Gusts: NA
Location:  44.9053°N, 93.3395°W
Report Text: KMSP 211702Z 15008KT 2 1/2SM R30L/3000VP6000FT -SN BR OVC005 01/01 A2985 RMK AO2 PLE00SNB00 P0000 T00110006
Loading
Personal Weather Stations






























Interactive Weather Map New forecast layout! Learn more

10-Day Weather Forecast

Advertisements
Track Severe Weather on mobile